Flight Track Log - Related Links

Times and Time Zones

All times are in EDT time to prevent confusion due to time zone crossing. See the N306UP flight status page for this flight to view local times or setup timezone preferences in your user account.

Time Position Orientation Groundspeed Altitude Reporting Facility
EDT Latitude Longitude Course Direction KTS MPH feet Rate Location/Type
Wed 02:29:09 AM 34.0220 -117.5520 174° South 227 261 3,000  Level FlightAware ADS-B
Wed 02:29:34 AM 33.9930 -117.5460 170° South 253 291 3,900 2,073 Climbing FlightAware ADS-B
Wed 02:30:04 AM 33.9560 -117.5380 170° South 280 322 4,900 2,200 Climbing FlightAware ADS-B
Wed 02:30:34 AM 33.9170 -117.5260 166° South 286 329 6,100 2,267 Climbing FlightAware ADS-B
Wed 02:30:49 AM 33.9020 -117.5160 151° Southeast 285 328 6,600 2,400 Climbing FlightAware ADS-B
Wed 02:31:14 AM 33.8730 -117.4920 146° Southeast 288 331 7,700 2,400 Climbing FlightAware ADS-B
Wed 02:31:39 AM 33.8460 -117.4710 147° Southeast 293 337 8,600 2,182 Climbing FlightAware ADS-B
Wed 02:32:09 AM 33.8130 -117.4420 144° Southeast 299 344 9,700 1,680 Climbing FlightAware ADS-B
Wed 02:32:54 AM 33.7580 -117.3950 145° Southeast 339 390 10,700 1,271 Climbing FlightAware ADS-B
Wed 02:33:34 AM 33.7020 -117.3490 146° Southeast 384 442 11,500 1,835 Climbing FlightAware ADS-B
Wed 02:34:19 AM 33.6340 -117.2940 146° Southeast 411 473 13,300 2,259 Climbing FlightAware ADS-B
Wed 02:34:59 AM 33.5690 -117.2380 144° Southeast 442 509 14,700 2,047 Climbing FlightAware ADS-B
Wed 02:35:44 AM 33.4880 -117.1710 145° Southeast 472 543 16,200 2,118 Climbing FlightAware ADS-B
Wed 02:36:24 AM 33.4160 -117.1090 144° Southeast 491 565 17,700 2,325 Climbing FlightAware ADS-B
Wed 02:37:04 AM 33.3390 -117.0450 145° Southeast 504 580 19,300 2,329 Climbing FlightAware ADS-B
Wed 02:37:49 AM 33.2430 -117.0010 159° South 527 606 21,000 2,118 Climbing FlightAware ADS-B
Wed 02:38:29 AM 33.1430 -117.0060 182° South 528 608 22,300 2,118 Climbing FlightAware ADS-B
Wed 02:39:14 AM 33.0430 -117.0600 204° Southwest 517 595 24,000 2,188 Climbing FlightAware ADS-B
Wed 02:39:54 AM 32.9580 -117.1140 208° Southwest 524 603 25,400 1,875 Climbing FlightAware ADS-B
Wed 02:40:34 AM 32.8750 -117.1670 208° Southwest 532 612 26,500 1,543 Climbing FlightAware ADS-B
Wed 02:41:04 AM 32.8130 -117.2210 216° Southwest 514 592 27,200 1,760 Climbing FlightAware ADS-B
Wed 02:41:49 AM 32.7710 -117.3260 245° Southwest 458 527 28,700 2,188 Climbing FlightAware ADS-B
Wed 02:42:29 AM 32.7580 -117.4240 261° West 446 513 30,300 1,950 Climbing FlightAware ADS-B
Wed 02:43:09 AM 32.7470 -117.5180 262° West 448 516 31,300 1,624 Climbing FlightAware ADS-B
Wed 02:43:54 AM 32.7330 -117.6330 262° West 445 512 32,600 1,765 Climbing FlightAware ADS-B
Wed 02:44:34 AM 32.7220 -117.7240 262° West 437 503 33,800 988 Climbing FlightAware ADS-B
Wed 02:45:19 AM 32.7090 -117.8330 262° West 435 501 34,000 141 Climbing FlightAware ADS-B
Wed 02:45:59 AM 32.6970 -117.9260 261° West 439 505 34,000  Level FlightAware ADS-B
Wed 02:46:39 AM 32.6850 -118.0210 261° West 445 512 34,000  Level FlightAware ADS-B
Wed 02:47:24 AM 32.6710 -118.1350 262° West 447 514 34,000  Level FlightAware ADS-B
Wed 02:48:04 AM 32.6590 -118.2280 261° West 451 519 34,000  Level FlightAware ADS-B
Wed 02:48:49 AM 32.6440 -118.3410 261° West 454 522 34,000  Level FlightAware ADS-B
Wed 02:49:29 AM 32.6320 -118.4360 261° West 453 521 34,000  Level FlightAware ADS-B
Wed 02:50:09 AM 32.6190 -118.5350 261° West 452 520 34,000  Level FlightAware ADS-B
Wed 02:50:54 AM 32.5960 -118.6490 257° West 462 532 34,000  Level FlightAware ADS-B
Wed 02:51:29 AM 32.5690 -118.7270 248° West 467 537 34,000  Level FlightAware ADS-B
Wed 02:52:24 AM 32.5240 -118.8540 247° West 465 535 34,000  Level FlightAware ADS-B
Wed 02:53:14 AM 32.4880 -118.9540 247° West 465 535 34,000  Level FlightAware ADS-B
Wed 02:53:54 AM 32.4600 -119.0340 247° West 465 535 34,000  Level FlightAware ADS-B
Wed 02:54:34 AM 32.4310 -119.1130 247° West 465 535 34,000  Level FlightAware ADS-B
Wed 02:55:14 AM 32.4030 -119.1930 248° West 465 535 34,000  Level FlightAware ADS-B
Wed 02:55:54 AM 32.3740 -119.2730 247° West 465 535 34,000  Level FlightAware ADS-B
Wed 02:56:44 AM 32.3380 -119.3720 247° West 465 535 34,000  Level FlightAware ADS-B
Wed 02:57:24 AM 32.3100 -119.4520 248° West 465 535 34,000  Level FlightAware ADS-B
Wed 02:58:04 AM 32.2810 -119.5320 247° West 465 535 34,000  Level FlightAware ADS-B
Wed 02:58:44 AM 32.2520 -119.6110 247° West 465 535 34,000  Level FlightAware ADS-B
Wed 02:59:24 AM 32.2240 -119.6910 248° West 465 535 34,000  Level FlightAware ADS-B
Wed 03:00:07 AM 32.1930 -119.7770 247° West 465 535 34,000  Level FlightAware ADS-B
Wed 03:00:37 AM 32.1720 -119.8360 247° West 465 535 34,000  Level FlightAware ADS-B
Wed 03:01:17 AM 32.1430 -119.9160 247° West 465 535 34,000  Level FlightAware ADS-B
Wed 03:02:09 AM 32.0322 -120.1658 247° West 454 522 34,000  Level Los Angeles Center
Wed 03:03:09 AM 31.9803 -120.3039 246° West 459 528 34,000  Level Los Angeles Center
Wed 03:04:10 AM 31.9269 -120.4403 245° Southwest 459 528 34,000  Level Los Angeles Center
Wed 03:05:10 AM 31.8747 -120.5775 246° West 459 528 34,000 -50 Level Los Angeles Center
Wed 03:06:11 AM 31.8208 -120.7133 245° Southwest 460 529 33,900  Descending Los Angeles Center
Wed 03:07:11 AM 31.7686 -120.8497 246° West 458 527 34,000  Climbing Los Angeles Center
Wed 03:08:11 AM 31.7153 -120.9856 245° Southwest 459 528 33,900 -50 Descending Los Angeles Center
Wed 03:09:12 AM 31.6622 -121.1211 245° Southwest 457 526 33,900 50 Level Los Angeles Center
Wed 03:10:12 AM 31.6092 -121.2569 245° Southwest 458 527 34,000 50 Climbing Los Angeles Center
Wed 03:11:12 AM 31.5575 -121.3933 246° West 458 527 34,000  Level Los Angeles Center
Wed 03:13:00 AM 31.5071 -121.6454 257° West  Level FlightAware Approximate
Wed 03:20:00 AM 31.3065 -122.6231 257° West  Level FlightAware Approximate
Wed 03:21:00 AM 31.2774 -122.7626 257° West  Level FlightAware Approximate
Wed 03:22:00 AM 31.2492 -122.9022 257° West  Level FlightAware Approximate
Wed 03:23:00 AM 31.2208 -123.0416 257° West  Level FlightAware Approximate
Wed 03:24:00 AM 31.1923 -123.1811 257° West  Level FlightAware Approximate
Wed 03:25:00 AM 31.1636 -123.3204 257° West  Level FlightAware Approximate
Wed 03:26:00 AM 31.1348 -123.4596 256° West  Level FlightAware Approximate
Wed 03:26:32 AM 31.1333 -123.5500 256° West 442 509 34,000  Level Oakland Oceanic (ODAPS)
Wed 03:27:00 AM 31.1066 -123.5988 260° West  Level FlightAware Approximate
Wed 03:28:00 AM 31.0849 -123.7397 260° West  Level FlightAware Approximate
Wed 03:28:52 AM 31.0667 -123.8667 256° West 444 511 34,000  Level Oakland Oceanic (ODAPS)
Wed 03:29:00 AM 31.0548 -123.8785 256° West  Level FlightAware Approximate
Wed 03:30:00 AM 31.0240 -124.0170 255° West  Level FlightAware Approximate
Wed 03:31:00 AM 30.9930 -124.1554 255° West  Level FlightAware Approximate
Wed 03:32:00 AM 30.9506 -124.3781 255° West 442 509 34,000  Level FlightAware Transoceanic
Wed 03:33:00 AM 30.9196 -124.5158 255° West 442 509 34,000  Level FlightAware Transoceanic
Wed 03:34:00 AM 30.8885 -124.6534 255° West 442 509 34,000  Level FlightAware Transoceanic
Wed 03:35:00 AM 30.8790 -124.7048 255° West 444 511 34,000  Level FlightAware Transoceanic
Wed 03:36:00 AM 30.8473 -124.8442 255° West 444 511 34,000  Level FlightAware Transoceanic
Wed 03:37:00 AM 30.8153 -124.9835 255° West 444 511 34,000  Level FlightAware Transoceanic
Wed 03:38:00 AM 30.7832 -125.1227 255° West 444 511 34,000  Level FlightAware Transoceanic
Wed 03:39:00 AM 30.7510 -125.2617 255° West 444 511 34,000  Level FlightAware Transoceanic
Wed 03:40:00 AM 30.7186 -125.4007 255° West 444 511 34,000  Level FlightAware Transoceanic
Wed 03:41:00 AM 30.6861 -125.5396 255° West 444 511 34,000  Level FlightAware Transoceanic
Wed 03:42:00 AM 30.6534 -125.6785 255° West 444 511 34,000  Level FlightAware Transoceanic
Wed 03:42:44 AM 30.6167 -125.8000 255° West 441 507 34,000  Level Oakland Oceanic (ODAPS)
Wed 03:43:00 AM 30.6205 -125.8172 255° West 444 511 34,000  Level FlightAware Transoceanic
Wed 03:44:00 AM 30.5876 -125.9558 255° West 444 511 34,000  Level FlightAware Transoceanic
Wed 03:45:00 AM 30.5544 -126.0943 254° West 444 511 34,000  Level FlightAware Transoceanic
Wed 03:46:00 AM 30.5212 -126.2327 254° West 444 511 34,000  Level FlightAware Transoceanic
Wed 03:47:00 AM 30.4877 -126.3711 254° West 444 511 34,000  Level FlightAware Transoceanic
Wed 03:48:00 AM 30.4225 -126.6117 254° West 441 507 34,000  Level FlightAware Transoceanic
Wed 03:49:00 AM 30.3896 -126.7467 254° West 441 507 34,000  Level FlightAware Transoceanic
Wed 03:50:00 AM 30.3566 -126.8816 254° West 441 507 34,000  Level FlightAware Transoceanic
Wed 03:51:00 AM 30.3235 -127.0163 254° West 441 507 34,000  Level FlightAware Transoceanic
Wed 03:52:00 AM 30.2902 -127.1510 254° West 441 507 34,000  Level FlightAware Transoceanic
Wed 03:53:00 AM 30.2568 -127.2856 254° West 441 507 34,000  Level FlightAware Transoceanic
Wed 03:54:00 AM 30.2233 -127.4202 254° West 441 507 34,000  Level FlightAware Transoceanic
Wed 03:55:00 AM 30.1896 -127.5546 254° West 441 507 34,000  Level FlightAware Transoceanic
Wed 03:56:00 AM 30.1558 -127.6889 254° West 441 507 34,000  Level FlightAware Transoceanic
Wed 03:56:29 AM 30.1667 -127.6833 254° West 439 505 34,000  Level Oakland Oceanic (ODAPS)
Wed 03:57:00 AM 30.1218 -127.8231 254° West 441 507 34,000  Level FlightAware Transoceanic
Wed 03:58:00 AM 30.0877 -127.9573 254° West 441 507 34,000  Level FlightAware Transoceanic
Wed 03:59:00 AM 30.0535 -128.0913 254° West 441 507 34,000  Level FlightAware Transoceanic
Wed 04:00:00 AM 30.0192 -128.2253 253° West 441 507 34,000  Level FlightAware Transoceanic
Wed 04:01:00 AM 29.9847 -128.3591 253° West 441 507 34,000  Level FlightAware Transoceanic
Wed 04:02:00 AM 29.9583 -128.4888 253° West 439 505 34,000  Level FlightAware Transoceanic
Wed 04:03:00 AM 29.9231 -128.6227 253° West 439 505 34,000  Level FlightAware Transoceanic
Wed 04:04:00 AM 29.8878 -128.7565 253° West 439 505 34,000  Level FlightAware Transoceanic
Wed 04:05:00 AM 29.8523 -128.8902 253° West 439 505 34,000  Level FlightAware Transoceanic
Wed 04:06:00 AM 29.8167 -129.0238 253° West 439 505 34,000  Level FlightAware Transoceanic
Wed 04:07:00 AM 29.7810 -129.1574 253° West 439 505 34,000  Level FlightAware Transoceanic
Wed 04:08:00 AM 29.7451 -129.2908 253° West 439 505 34,000  Level FlightAware Transoceanic
Wed 04:09:00 AM 29.7091 -129.4241 253° West 439 505 34,000  Level FlightAware Transoceanic
Wed 04:10:00 AM 29.6729 -129.5574 253° West 439 505 34,000  Level FlightAware Transoceanic
Wed 04:10:24 AM 29.6667 -129.5500 253° West 444 511 34,000  Level Oakland Oceanic (ODAPS)
Wed 04:11:00 AM 29.6367 -129.6905 253° West 439 505 34,000  Level FlightAware Transoceanic
Wed 04:12:00 AM 29.6003 -129.8236 252° West 439 505 34,000  Level FlightAware Transoceanic
Wed 04:13:00 AM 29.5637 -129.9565 252° West 439 505 34,000  Level FlightAware Transoceanic
Wed 04:14:00 AM 29.5271 -130.0894 252° West 439 505 34,000  Level FlightAware Transoceanic
Wed 04:15:00 AM 29.4902 -130.2221 252° West 439 505 34,000  Level FlightAware Transoceanic
Wed 04:16:00 AM 29.4505 -130.3514 253° West 444 511 34,000  Level FlightAware Transoceanic
Wed 04:17:00 AM 29.4140 -130.4847 253° West 444 511 34,000  Level FlightAware Transoceanic
Wed 04:18:00 AM 29.3773 -130.6178 252° West 444 511 34,000  Level FlightAware Transoceanic
Wed 04:19:00 AM 29.3406 -130.7509 252° West 444 511 34,000  Level FlightAware Transoceanic
Wed 04:20:00 AM 29.3037 -130.8838 252° West 444 511 34,000  Level FlightAware Transoceanic
Wed 04:21:00 AM 29.2667 -131.0167 252° West 444 511 34,000  Level FlightAware Transoceanic
Wed 04:21:16 AM 29.2667 -131.0167 252° West 447 514 34,000  Level Oakland Oceanic (ODAPS)
Wed 04:22:00 AM 29.2274 -131.1550 252° West 444 511 34,000  Level FlightAware Transoceanic
Wed 04:23:00 AM 29.1881 -131.2932 252° West 444 511 34,000  Level FlightAware Transoceanic
Wed 04:24:00 AM 29.1486 -131.4314 252° West 444 511 34,000  Level FlightAware Transoceanic
Wed 04:24:17 AM 29.1500 -131.4167 252° West 451 519 34,000  Level Oakland Oceanic (ODAPS)
Wed 04:25:00 AM 29.1089 -131.5694 252° West 444 511 34,000  Level FlightAware Transoceanic
Wed 04:26:00 AM 29.0691 -131.7073 252° West 444 511 34,000  Level FlightAware Transoceanic
Wed 04:27:00 AM 29.0337 -131.8298 252° West 447 514 34,000  Level FlightAware Transoceanic
Wed 04:28:00 AM 28.9944 -131.9649 252° West 447 514 34,000  Level FlightAware Transoceanic
Wed 04:29:00 AM 28.9549 -132.1000 252° West 447 514 34,000  Level FlightAware Transoceanic
Wed 04:30:00 AM 28.9147 -132.2288 251° West 451 519 34,000  Level FlightAware Transoceanic
Wed 04:31:00 AM 28.8750 -132.3638 251° West 451 519 34,000  Level FlightAware Transoceanic
Wed 04:32:00 AM 28.8351 -132.4986 251° West 451 519 34,000  Level FlightAware Transoceanic
Wed 04:33:00 AM 28.7952 -132.6334 251° West 451 519 34,000  Level FlightAware Transoceanic
Wed 04:34:00 AM 28.7551 -132.7681 251° West 451 519 34,000  Level FlightAware Transoceanic
Wed 04:35:00 AM 28.7149 -132.9027 251° West 451 519 34,000  Level FlightAware Transoceanic
Wed 04:36:00 AM 28.6745 -133.0371 251° West 451 519 34,000  Level FlightAware Transoceanic
Wed 04:37:00 AM 28.6340 -133.1715 251° West 451 519 34,000  Level FlightAware Transoceanic
Wed 04:38:00 AM 28.5934 -133.3058 251° West 451 519 34,000  Level FlightAware Transoceanic
Wed 04:38:03 AM 28.6000 -133.3000 251° West 455 524 34,000  Level Oakland Oceanic (ODAPS)
Wed 04:39:00 AM 28.5526 -133.4399 251° West 451 519 34,000  Level FlightAware Transoceanic
Wed 04:40:00 AM 28.5117 -133.5740 251° West 451 519 34,000  Level FlightAware Transoceanic
Wed 04:41:00 AM 28.4707 -133.7079 251° West 451 519 34,000  Level FlightAware Transoceanic
Wed 04:42:00 AM 28.4295 -133.8418 251° West 451 519 34,000  Level FlightAware Transoceanic
Wed 04:43:00 AM 28.3883 -133.9755 251° West 451 519 34,000  Level FlightAware Transoceanic
Wed 04:44:00 AM 28.3524 -134.1044 251° West 455 524 34,000  Level FlightAware Transoceanic
Wed 04:45:00 AM 28.3107 -134.2381 250° West 455 524 34,000  Level FlightAware Transoceanic
Wed 04:46:00 AM 28.2689 -134.3717 250° West 455 524 34,000  Level FlightAware Transoceanic
Wed 04:47:00 AM 28.2269 -134.5052 250° West 455 524 34,000  Level FlightAware Transoceanic
Wed 04:48:00 AM 28.1847 -134.6385 250° West 455 524 34,000  Level FlightAware Transoceanic
Wed 04:49:00 AM 28.1425 -134.7718 250° West 455 524 34,000  Level FlightAware Transoceanic
Wed 04:50:00 AM 28.1001 -134.9050 250° West 455 524 34,000  Level FlightAware Transoceanic
Wed 04:51:00 AM 28.0576 -135.0381 250° West 455 524 34,000  Level FlightAware Transoceanic
Wed 04:51:58 AM 28.0000 -135.2000 250° West 461 531 34,000  Level Oakland Oceanic (ODAPS)
Wed 04:52:00 AM 28.0150 -135.1710 250° West 455 524 34,000  Level FlightAware Transoceanic
Wed 04:53:00 AM 27.9723 -135.3039 250° West 455 524 34,000  Level FlightAware Transoceanic
Wed 04:54:00 AM 27.9294 -135.4366 250° West 455 524 34,000  Level FlightAware Transoceanic
Wed 04:55:00 AM 27.8864 -135.5693 250° West 455 524 34,000  Level FlightAware Transoceanic
Wed 04:56:00 AM 27.8432 -135.7018 250° West 455 524 34,000  Level FlightAware Transoceanic
Wed 04:57:00 AM 27.8000 -135.8342 250° West 455 524 34,000  Level FlightAware Transoceanic
Wed 04:58:00 AM 27.7337 -136.0236 250° West 461 531 34,000  Level FlightAware Transoceanic
Wed 04:59:00 AM 27.6888 -136.1605 250° West 461 531 34,000  Level FlightAware Transoceanic
Wed 05:00:00 AM 27.6438 -136.2972 250° West 461 531 34,000  Level FlightAware Transoceanic
Wed 05:01:00 AM 27.5987 -136.4339 250° West 461 531 34,000  Level FlightAware Transoceanic
Wed 05:02:00 AM 27.5534 -136.5704 249° West 461 531 34,000  Level FlightAware Transoceanic
Wed 05:03:00 AM 27.5080 -136.7068 249° West 461 531 34,000  Level FlightAware Transoceanic
Wed 05:04:00 AM 27.4625 -136.8431 249° West 461 531 34,000  Level FlightAware Transoceanic
Wed 05:05:00 AM 27.4168 -136.9793 249° West 461 531 34,000  Level FlightAware Transoceanic
Wed 05:05:55 AM 27.3833 -137.1000 249° West 465 535 34,000  Level Oakland Oceanic (ODAPS)
Wed 05:06:00 AM 27.3711 -137.1154 249° West 461 531 34,000  Level FlightAware Transoceanic
Wed 05:07:00 AM 27.3251 -137.2514 249° West 461 531 34,000  Level FlightAware Transoceanic
Wed 05:08:00 AM 27.2791 -137.3872 249° West 461 531 34,000  Level FlightAware Transoceanic
Wed 05:09:00 AM 27.2329 -137.5230 249° West 461 531 34,000  Level FlightAware Transoceanic
Wed 05:10:00 AM 27.1866 -137.6586 249° West 461 531 34,000  Level FlightAware Transoceanic
Wed 05:11:00 AM 27.1401 -137.7941 249° West 461 531 34,000  Level FlightAware Transoceanic
Wed 05:12:00 AM 27.0966 -137.9257 248° West 465 535 34,000  Level FlightAware Transoceanic
Wed 05:13:00 AM 27.0484 -138.0629 248° West 465 535 34,000  Level FlightAware Transoceanic
Wed 05:14:00 AM 27.0000 -138.2000 249° West 465 535 34,000  Level FlightAware Transoceanic
Wed 05:14:12 AM 27.0000 -138.2000 249° West 461 531 34,000  Level Oakland Oceanic (ODAPS)
Wed 05:15:00 AM 26.9524 -138.3358 249° West 465 535 34,000  Level FlightAware Transoceanic
Wed 05:16:00 AM 26.9048 -138.4716 248° West 465 535 34,000  Level FlightAware Transoceanic
Wed 05:17:00 AM 26.8569 -138.6072 248° West 465 535 34,000  Level FlightAware Transoceanic
Wed 05:18:00 AM 26.8090 -138.7427 248° West 465 535 34,000  Level FlightAware Transoceanic
Wed 05:19:00 AM 26.7609 -138.8781 248° West 465 535 34,000  Level FlightAware Transoceanic
Wed 05:19:40 AM 26.7333 -138.9500 248° West 460 529 34,000  Level Oakland Oceanic (ODAPS)
Wed 05:20:00 AM 26.7183 -138.9978 248° West 461 531 34,000  Level FlightAware Transoceanic
Wed 05:21:00 AM 26.6709 -139.1304 248° West 461 531 34,000  Level FlightAware Transoceanic
Wed 05:22:00 AM 26.6234 -139.2629 248° West 461 531 34,000  Level FlightAware Transoceanic
Wed 05:23:00 AM 26.5758 -139.3952 248° West 461 531 34,000  Level FlightAware Transoceanic
Wed 05:24:00 AM 26.5280 -139.5275 248° West 461 531 34,000  Level FlightAware Transoceanic
Wed 05:25:00 AM 26.4801 -139.6596 248° West 461 531 34,000  Level FlightAware Transoceanic
Wed 05:26:00 AM 26.4454 -139.7503 248° West 460 529 34,000  Level FlightAware Transoceanic
Wed 05:27:00 AM 26.3970 -139.8833 248° West 460 529 34,000  Level FlightAware Transoceanic
Wed 05:28:00 AM 26.3485 -140.0161 248° West 460 529 34,000  Level FlightAware Transoceanic
Wed 05:29:00 AM 26.2998 -140.1489 248° West 460 529 34,000  Level FlightAware Transoceanic
Wed 05:30:00 AM 26.2511 -140.2815 248° West 460 529 34,000  Level FlightAware Transoceanic
Wed 05:31:00 AM 26.2022 -140.4141 248° West 460 529 34,000  Level FlightAware Transoceanic
Wed 05:32:00 AM 26.1531 -140.5465 248° West 460 529 34,000  Level FlightAware Transoceanic
Wed 05:33:00 AM 26.1040 -140.6788 247° West 460 529 34,000  Level FlightAware Transoceanic
Wed 05:33:31 AM 26.0667 -140.7667 248° West 455 524 34,000  Level Oakland Oceanic (ODAPS)
Wed 05:34:00 AM 26.0547 -140.8110 247° West 460 529 34,000  Level FlightAware Transoceanic
Wed 05:35:00 AM 26.0053 -140.9431 247° West 460 529 34,000  Level FlightAware Transoceanic
Wed 05:36:00 AM 25.9558 -141.0751 247° West 460 529 34,000  Level FlightAware Transoceanic
Wed 05:37:00 AM 25.9062 -141.2070 247° West 460 529 34,000  Level FlightAware Transoceanic
Wed 05:38:00 AM 25.8564 -141.3387 247° West 460 529 34,000  Level FlightAware Transoceanic
Wed 05:39:00 AM 25.7757 -141.5419 247° West 455 524 34,000  Level FlightAware Transoceanic
Wed 05:40:00 AM 25.7268 -141.6707 247° West 455 524 34,000  Level FlightAware Transoceanic
Wed 05:41:00 AM 25.6778 -141.7994 247° West 455 524 34,000  Level FlightAware Transoceanic
Wed 05:42:00 AM 25.6286 -141.9281 247° West 455 524 34,000  Level FlightAware Transoceanic
Wed 05:43:00 AM 25.5794 -142.0566 247° West 455 524 34,000  Level FlightAware Transoceanic
Wed 05:44:00 AM 25.5301 -142.1850 247° West 455 524 34,000  Level FlightAware Transoceanic
Wed 05:45:00 AM 25.4806 -142.3133 247° West 455 524 34,000  Level FlightAware Transoceanic
Wed 05:46:00 AM 25.4310 -142.4415 247° West 455 524 34,000  Level FlightAware Transoceanic
Wed 05:47:00 AM 25.3813 -142.5696 247° West 455 524 34,000  Level FlightAware Transoceanic
Wed 05:47:33 AM 25.3833 -142.5500 247° West 459 528 34,000  Level Oakland Oceanic (ODAPS)
Wed 05:48:00 AM 25.3315 -142.6975 247° West 455 524 34,000  Level FlightAware Transoceanic
Wed 05:49:00 AM 25.2816 -142.8254 247° West 455 524 34,000  Level FlightAware Transoceanic
Wed 05:50:00 AM 25.2316 -142.9532 247° West 455 524 34,000  Level FlightAware Transoceanic
Wed 05:51:00 AM 25.1815 -143.0809 247° West 455 524 34,000  Level FlightAware Transoceanic
Wed 05:52:00 AM 25.1313 -143.2084 246° West 455 524 34,000  Level FlightAware Transoceanic
Wed 05:53:00 AM 25.0823 -143.3225 247° West 459 528 34,000  Level FlightAware Transoceanic
Wed 05:54:00 AM 25.0318 -143.4509 246° West 459 528 34,000  Level FlightAware Transoceanic
Wed 05:55:00 AM 24.9811 -143.5792 246° West 459 528 34,000  Level FlightAware Transoceanic
Wed 05:56:00 AM 24.9304 -143.7074 246° West 459 528 34,000  Level FlightAware Transoceanic
Wed 05:57:00 AM 24.8795 -143.8354 246° West 459 528 34,000  Level FlightAware Transoceanic
Wed 05:58:00 AM 24.8285 -143.9634 246° West 459 528 34,000  Level FlightAware Transoceanic
Wed 05:59:00 AM 24.7774 -144.0913 246° West 459 528 34,000  Level FlightAware Transoceanic
Wed 06:00:00 AM 24.7262 -144.2190 246° West 459 528 34,000  Level FlightAware Transoceanic
Wed 06:01:00 AM 24.6749 -144.3467 246° West 459 528 34,000  Level FlightAware Transoceanic
Wed 06:01:26 AM 24.6667 -144.3500 247° West 461 531 34,000  Level Oakland Oceanic (ODAPS)
Wed 06:02:00 AM 24.6234 -144.4742 246° West 459 528 34,000  Level FlightAware Transoceanic
Wed 06:03:00 AM 24.5719 -144.6017 246° West 459 528 34,000  Level FlightAware Transoceanic
Wed 06:04:00 AM 24.5203 -144.7290 246° West 459 528 34,000  Level FlightAware Transoceanic
Wed 06:05:00 AM 24.4685 -144.8562 246° West 459 528 34,000  Level FlightAware Transoceanic
Wed 06:06:00 AM 24.4167 -144.9833 246° West 459 528 34,000  Level FlightAware Transoceanic
Wed 06:06:18 AM 24.4167 -144.9833 246° West 461 531 34,000  Level Oakland Oceanic (ODAPS)
Wed 06:07:00 AM 24.3620 -145.1157 246° West 461 531 34,000  Level FlightAware Transoceanic
Wed 06:08:00 AM 24.3072 -145.2480 246° West 461 531 34,000  Level FlightAware Transoceanic
Wed 06:09:00 AM 24.2523 -145.3802 245° Southwest 461 531 34,000  Level FlightAware Transoceanic
Wed 06:10:00 AM 24.1973 -145.5123 245° Southwest 461 531 34,000  Level FlightAware Transoceanic
Wed 06:11:00 AM 24.1422 -145.6442 245° Southwest 461 531 34,000  Level FlightAware Transoceanic
Wed 06:12:00 AM 24.0997 -145.7456 245° Southwest 461 531 34,000  Level FlightAware Transoceanic
Wed 06:13:00 AM 24.0465 -145.8723 245° Southwest 461 531 34,000  Level FlightAware Transoceanic
Wed 06:14:00 AM 23.9932 -145.9989 245° Southwest 461 531 34,000  Level FlightAware Transoceanic
Wed 06:15:00 AM 23.9398 -146.1254 245° Southwest 461 531 34,000  Level FlightAware Transoceanic
Wed 06:15:14 AM 23.9333 -146.1333 245° Southwest 466 536 34,000  Level Oakland Oceanic (ODAPS)
Wed 06:16:00 AM 23.8863 -146.2517 245° Southwest 461 531 34,000  Level FlightAware Transoceanic
Wed 06:17:00 AM 23.8327 -146.3780 245° Southwest 461 531 34,000  Level FlightAware Transoceanic
Wed 06:18:00 AM 23.7789 -146.5041 245° Southwest 461 531 34,000  Level FlightAware Transoceanic
Wed 06:19:00 AM 23.7251 -146.6302 245° Southwest 461 531 34,000  Level FlightAware Transoceanic
Wed 06:20:00 AM 23.6712 -146.7561 245° Southwest 461 531 34,000  Level FlightAware Transoceanic
Wed 06:21:00 AM 23.6039 -146.9067 245° Southwest 466 536 34,000  Level FlightAware Transoceanic
Wed 06:22:00 AM 23.5486 -147.0353 245° Southwest 466 536 34,000  Level FlightAware Transoceanic
Wed 06:23:00 AM 23.4932 -147.1637 245° Southwest 466 536 34,000  Level FlightAware Transoceanic
Wed 06:24:00 AM 23.4377 -147.2920 245° Southwest 466 536 34,000  Level FlightAware Transoceanic
Wed 06:25:00 AM 23.3822 -147.4202 245° Southwest 466 536 34,000  Level FlightAware Transoceanic
Wed 06:26:00 AM 23.3265 -147.5483 245° Southwest 466 536 34,000  Level FlightAware Transoceanic
Wed 06:27:00 AM 23.2707 -147.6762 245° Southwest 466 536 34,000  Level FlightAware Transoceanic
Wed 06:28:00 AM 23.2147 -147.8041 245° Southwest 466 536 34,000  Level FlightAware Transoceanic
Wed 06:29:00 AM 23.1587 -147.9319 244° Southwest 466 536 34,000  Level FlightAware Transoceanic
Wed 06:29:05 AM 23.1667 -147.9167 244° Southwest 460 529 34,000  Level Oakland Oceanic (ODAPS)
Wed 06:30:00 AM 23.1026 -148.0595 244° Southwest 466 536 34,000  Level FlightAware Transoceanic
Wed 06:31:00 AM 23.0464 -148.1871 244° Southwest 466 536 34,000  Level FlightAware Transoceanic
Wed 06:32:00 AM 22.9901 -148.3145 244° Southwest 466 536 34,000  Level FlightAware Transoceanic
Wed 06:33:00 AM 22.9337 -148.4419 244° Southwest 466 536 34,000  Level FlightAware Transoceanic
Wed 06:34:00 AM 22.8771 -148.5691 244° Southwest 466 536 34,000  Level FlightAware Transoceanic
Wed 06:35:00 AM 22.8386 -148.6579 244° Southwest 460 529 34,000  Level FlightAware Transoceanic
Wed 06:36:00 AM 22.7836 -148.7811 244° Southwest 460 529 34,000  Level FlightAware Transoceanic
Wed 06:37:00 AM 22.7285 -148.9042 244° Southwest 460 529 34,000  Level FlightAware Transoceanic
Wed 06:38:00 AM 22.6733 -149.0272 244° Southwest 460 529 34,000  Level FlightAware Transoceanic
Wed 06:39:00 AM 22.6180 -149.1501 244° Southwest 460 529 34,000  Level FlightAware Transoceanic
Wed 06:40:00 AM 22.5626 -149.2729 244° Southwest 460 529 34,000  Level FlightAware Transoceanic
Wed 06:41:00 AM 22.5071 -149.3956 244° Southwest 460 529 34,000  Level FlightAware Transoceanic
Wed 06:42:00 AM 22.4515 -149.5182 244° Southwest 460 529 34,000  Level FlightAware Transoceanic
Wed 06:42:51 AM 22.4000 -149.6500 244° Southwest 463 533 34,000  Level Oakland Oceanic (ODAPS)
Wed 06:43:00 AM 22.3959 -149.6407 244° Southwest 460 529 34,000  Level FlightAware Transoceanic
Wed 06:44:00 AM 22.3401 -149.7632 244° Southwest 460 529 34,000  Level FlightAware Transoceanic
Wed 06:45:00 AM 22.2843 -149.8855 244° Southwest 460 529 34,000  Level FlightAware Transoceanic
Wed 06:46:00 AM 22.2283 -150.0077 244° Southwest 460 529 34,000  Level FlightAware Transoceanic
Wed 06:47:00 AM 22.1723 -150.1298 244° Southwest 460 529 34,000  Level FlightAware Transoceanic
Wed 06:48:00 AM 22.0987 -150.3013 243° Southwest 463 533 34,000  Level FlightAware Transoceanic
Wed 06:49:00 AM 22.0382 -150.4312 243° Southwest 463 533 34,000  Level FlightAware Transoceanic
Wed 06:50:00 AM 21.9775 -150.5611 243° Southwest 463 533 34,000  Level FlightAware Transoceanic
Wed 06:51:00 AM 21.9167 -150.6908 243° Southwest 463 533 34,000  Level FlightAware Transoceanic
Wed 06:52:00 AM 21.8559 -150.8203 243° Southwest 463 533 34,000  Level FlightAware Transoceanic
Wed 06:53:00 AM 21.7949 -150.9498 243° Southwest 463 533 34,000  Level FlightAware Transoceanic
Wed 06:54:00 AM 21.7338 -151.0792 243° Southwest 463 533 34,000  Level FlightAware Transoceanic
Wed 06:55:00 AM 21.6726 -151.2085 243° Southwest 463 533 34,000  Level FlightAware Transoceanic
Wed 06:56:00 AM 21.6114 -151.3376 243° Southwest 463 533 34,000  Level FlightAware Transoceanic
Wed 06:56:21 AM 21.6000 -151.3500 242° Southwest 480 552 34,000  Level Honolulu Center
Wed 06:57:00 AM 21.5500 -151.4667 243° Southwest 463 533 34,000  Level FlightAware Transoceanic
Wed 06:57:21 AM 21.5333 -151.4667 238° Southwest 480 552 34,000  Level Honolulu Center
Wed 06:58:00 AM 21.4880 -151.5950 243° Southwest 463 533 34,000  Level FlightAware Transoceanic
Wed 06:58:21 AM 21.4833 -151.6000 248° West 480 552 34,000  Level Honolulu Center
Wed 06:59:00 AM 21.4260 -151.7233 243° Southwest 463 533 34,000  Level FlightAware Transoceanic
Wed 06:59:22 AM 21.4167 -151.7333 242° Southwest 480 552 34,000  Level Honolulu Center
Wed 07:00:00 AM 21.3638 -151.8515 242° Southwest 463 533 34,000  Level FlightAware Transoceanic
Wed 07:00:22 AM 21.3500 -151.8500 238° Southwest 480 552 34,000  Level Honolulu Center
Wed 07:01:00 AM 21.3015 -151.9795 242° Southwest 463 533 34,000  Level FlightAware Transoceanic
Wed 07:01:22 AM 21.3000 -151.9833 248° West 470 541 34,000  Level Honolulu Center
Wed 07:02:22 AM 21.2833 -152.1167 262° West 450 518 34,000  Level Honolulu Center
Wed 07:03:22 AM 21.2667 -152.2500 262° West 470 541 34,000  Level Honolulu Center
Wed 07:04:22 AM 21.2667 -152.4000 270° West 460 529 34,000  Level Honolulu Center
Wed 07:05:22 AM 21.2500 -152.5333 262° West 470 541 34,000  Level Honolulu Center
Wed 07:06:23 AM 21.2500 -152.6833 270° West 470 541 34,000  Level Honolulu Center
Wed 07:07:23 AM 21.2333 -152.8167 262° West 470 541 34,000  Level Honolulu Center
Wed 07:08:23 AM 21.2167 -152.9667 263° West 470 541 34,000  Level Honolulu Center
Wed 07:09:23 AM 21.2167 -153.1000 270° West 480 552 34,000  Level Honolulu Center
Wed 07:10:23 AM 21.2000 -153.2500 263° West 480 552 34,000  Level Honolulu Center
Wed 07:11:23 AM 21.1833 -153.3833 262° West 470 541 34,000  Level Honolulu Center
Wed 07:12:23 AM 21.1667 -153.5167 262° West 480 552 34,000  Level Honolulu Center
Wed 07:13:23 AM 21.1667 -153.6667 270° West 470 541 34,000  Level Honolulu Center
Wed 07:14:24 AM 21.1500 -153.8000 262° West 460 529 34,000  Level Honolulu Center
Wed 07:15:24 AM 21.1333 -153.9333 262° West 470 541 34,000  Level Honolulu Center
Wed 07:16:24 AM 21.1167 -154.0833 263° West 470 541 34,000 -400 Level Honolulu Center
Wed 07:17:24 AM 21.1167 -154.2167 270° West 470 541 33,200 -1,550 Descending Honolulu Center
Wed 07:18:24 AM 21.1000 -154.3667 263° West 470 541 30,900 -2,250 Descending Honolulu Center
Wed 07:19:24 AM 21.0833 -154.5000 262° West 460 529 28,700 -2,200 Descending Honolulu Center
Wed 07:20:24 AM 21.0667 -154.6333 262° West 460 529 26,500 -2,200 Descending Honolulu Center
Wed 07:21:24 AM 21.0667 -154.7667 270° West 440 506 24,300 -2,281 Descending Honolulu Center
Wed 07:22:25 AM 21.0500 -154.9000 262° West 430 495 21,900 -2,281 Descending Honolulu Center
Wed 07:23:25 AM 21.0333 -155.0333 262° West 430 495 19,700 -2,017 Descending Honolulu Center
Wed 07:24:24 AM 21.0167 -155.1333 260° West 420 483 17,900 -1,966 Descending Honolulu Center
Wed 07:25:24 AM 21.0000 -155.2500 261° West 400 460 15,800 -2,231 Descending Honolulu Center
Wed 07:26:25 AM 21.0000 -155.3667 270° West 400 460 13,400 -2,182 Descending Honolulu Center
Wed 07:27:25 AM 20.9833 -155.4833 261° West 380 437 11,400 -1,550 Descending Honolulu Center
Wed 07:28:25 AM 20.9833 -155.5833 270° West 330 380 10,300 -1,300 Descending Honolulu Center
Wed 07:29:25 AM 20.9833 -155.6667 270° West 290 334 8,800 -1,250 Descending Honolulu Center
Wed 07:30:25 AM 21.0000 -155.7500 282° West 290 334 7,800 -1,100 Descending Honolulu Center
Wed 07:31:25 AM 21.0167 -155.8500 280° West 280 322 6,600 -1,350 Descending Honolulu Center
Wed 07:32:25 AM 21.0333 -155.9333 282° West 280 322 5,100 -1,240 Descending Honolulu Center
Wed 07:33:26 AM 21.0333 -156.0167 270° West 280 322 4,100 -893 Descending Honolulu Center
Wed 07:34:26 AM 21.0500 -156.1000 282° West 250 288 3,300 -750 Descending Honolulu Center
Wed 07:35:26 AM 21.0667 -156.1667 285° West 230 265 2,600 -650 Descending Honolulu Center
Wed 07:36:26 AM 21.0667 -156.2333 270° West 200 230 2,000 -300 Descending Honolulu Center
Wed 07:37:26 AM 21.0667 -156.2833 270° West 200 230 2,000 -150 Level Honolulu Center
Wed 07:38:26 AM 21.0333 -156.3167 223° Southwest 190 219 1,700 -150 Descending Honolulu Center
Wed 07:39:26 AM 20.9833 -156.3500 212° Southwest 180 207 1,700 -198 Level Honolulu Center
Wed 07:40:27 AM 20.9500 -156.3833 223° Southwest 160 184 1,300 -645 Descending Honolulu Center
Wed 07:41:27 AM 20.9167 -156.4000 205° Southwest 150 173 400 -900 Descending Honolulu Center

Login

Don't have an account? Register now (free) for customized features, flight alerts, and more!